FDX1022 KMKE-KBUF
Flight info
| Callsign | FDX1022 |
|---|---|
| Flight time | 1h 11m |
| Altitude | 32000 |
| Route | SQUIB DCT BOHRR DCT KWYNN DCT GILLS DCT FOUTN DCT CORNA |
| Aircraft | MD11/H-SDE1E2E3FGHIJ2J3J4J5M1RWXY/LB1D1 |
Departure
| Time | 2026-05-05 00:10 |
|---|---|
| Airport | General Mitchell International Airport (KMKE) |
Arrival
| Time | 2026-05-05 01:21 |
|---|---|
| Airport | Buffalo Niagara International Airport (KBUF) |
| Time | Latitude | Longitude | Altitude | Speed | Heading |
|---|---|---|---|---|---|
| 2026-05-04 23:53 | 42.94280 | -87.91441 | 715 ft | 0 kts | 13° |
| 2026-05-05 00:00 | 42.94277 | -87.91441 | 715 ft | 1 kts | 20° |
| 2026-05-05 00:00 | 42.94273 | -87.91444 | 715 ft | 2 kts | 31° |
| 2026-05-05 00:00 | 42.94253 | -87.91464 | 715 ft | 2 kts | 39° |
| 2026-05-05 00:00 | 42.94241 | -87.91476 | 715 ft | 2 kts | 39° |
| 2026-05-05 00:01 | 42.94228 | -87.91485 | 715 ft | 2 kts | 22° |
| 2026-05-05 00:01 | 42.94215 | -87.91496 | 715 ft | 2 kts | 41° |
| 2026-05-05 00:01 | 42.94205 | -87.91510 | 715 ft | 2 kts | 53° |
| 2026-05-05 00:01 | 42.94198 | -87.91527 | 715 ft | 1 kts | 66° |
| 2026-05-05 00:02 | 42.94196 | -87.91534 | 715 ft | 0 kts | 70° |
| 2026-05-05 00:04 | 42.94201 | -87.91514 | 715 ft | 4 kts | 70° |
| 2026-05-05 00:04 | 42.94210 | -87.91440 | 715 ft | 12 kts | 94° |
| 2026-05-05 00:04 | 42.94171 | -87.91277 | 714 ft | 21 kts | 107° |
| 2026-05-05 00:04 | 42.94201 | -87.91053 | 707 ft | 27 kts | 71° |
| 2026-05-05 00:05 | 42.94265 | -87.90782 | 699 ft | 33 kts | 72° |
| 2026-05-05 00:05 | 42.94344 | -87.90460 | 692 ft | 38 kts | 71° |
| 2026-05-05 00:05 | 42.94420 | -87.90150 | 687 ft | 34 kts | 71° |
| 2026-05-05 00:05 | 42.94494 | -87.89850 | 683 ft | 32 kts | 72° |
| 2026-05-05 00:06 | 42.94588 | -87.89659 | 681 ft | 20 kts | 17° |
| 2026-05-05 00:06 | 42.94751 | -87.89627 | 680 ft | 27 kts | 7° |
| 2026-05-05 00:06 | 42.94972 | -87.89589 | 677 ft | 36 kts | 7° |
| 2026-05-05 00:06 | 42.95136 | -87.89558 | 678 ft | 0 kts | 9° |
| 2026-05-05 00:07 | 42.95137 | -87.89558 | 678 ft | 0 kts | 9° |
| 2026-05-05 00:07 | 42.95228 | -87.89541 | 680 ft | 29 kts | 6° |
| 2026-05-05 00:07 | 42.95415 | -87.89510 | 680 ft | 12 kts | 7° |
| 2026-05-05 00:07 | 42.95419 | -87.89510 | 680 ft | 0 kts | 7° |
| 2026-05-05 00:08 | 42.95464 | -87.89502 | 680 ft | 18 kts | 7° |
| 2026-05-05 00:08 | 42.95642 | -87.89475 | 683 ft | 21 kts | 6° |
| 2026-05-05 00:08 | 42.95737 | -87.89398 | 683 ft | 16 kts | 75° |
| 2026-05-05 00:08 | 42.95682 | -87.89321 | 683 ft | 10 kts | 175° |
| 2026-05-05 00:09 | 42.95602 | -87.89326 | 683 ft | 12 kts | 185° |
| 2026-05-05 00:09 | 42.95318 | -87.89377 | 680 ft | 85 kts | 189° |
| 2026-05-05 00:09 | 42.94440 | -87.89522 | 682 ft | 166 kts | 188° |
| 2026-05-05 00:09 | 42.93153 | -87.89752 | 1233 ft | 189 kts | 194° |
| 2026-05-05 00:10 | 42.91882 | -87.90042 | 2186 ft | 197 kts | 198° |
| 2026-05-05 00:10 | 42.90494 | -87.90130 | 3059 ft | 211 kts | 177° |
| 2026-05-05 00:10 | 42.89069 | -87.89555 | 3941 ft | 223 kts | 151° |
| 2026-05-05 00:10 | 42.87947 | -87.88031 | 4740 ft | 242 kts | 121° |
| 2026-05-05 00:11 | 42.87392 | -87.85721 | 4965 ft | 279 kts | 95° |
| 2026-05-05 00:11 | 42.87585 | -87.83027 | 4978 ft | 291 kts | 73° |
| 2026-05-05 00:11 | 42.88248 | -87.80409 | 4947 ft | 296 kts | 65° |
| 2026-05-05 00:11 | 42.89089 | -87.77850 | 4952 ft | 297 kts | 63° |
| 2026-05-05 00:12 | 42.90006 | -87.75298 | 4973 ft | 297 kts | 61° |
| 2026-05-05 00:12 | 42.90941 | -87.72791 | 4987 ft | 297 kts | 60° |
| 2026-05-05 00:12 | 42.91881 | -87.70302 | 4993 ft | 297 kts | 60° |
| 2026-05-05 00:12 | 42.92828 | -87.67795 | 5022 ft | 296 kts | 61° |
| 2026-05-05 00:13 | 42.93635 | -87.65214 | 5029 ft | 298 kts | 71° |
| 2026-05-05 00:13 | 42.94088 | -87.62473 | 5086 ft | 299 kts | 82° |
| 2026-05-05 00:13 | 42.94222 | -87.59641 | 5114 ft | 299 kts | 90° |
| 2026-05-05 00:13 | 42.94154 | -87.56834 | 5618 ft | 301 kts | 94° |
| 2026-05-05 00:14 | 42.94000 | -87.53957 | 6782 ft | 304 kts | 96° |
| 2026-05-05 00:14 | 42.93826 | -87.51083 | 8078 ft | 311 kts | 96° |
| 2026-05-05 00:14 | 42.93665 | -87.48159 | 9244 ft | 319 kts | 95° |
| 2026-05-05 00:14 | 42.93526 | -87.45142 | 10391 ft | 329 kts | 95° |
| 2026-05-05 00:15 | 42.93387 | -87.41876 | 11029 ft | 358 kts | 94° |
| 2026-05-05 00:15 | 42.93250 | -87.38389 | 11574 ft | 388 kts | 94° |
| 2026-05-05 00:15 | 42.93105 | -87.34632 | 12384 ft | 408 kts | 94° |
| 2026-05-05 00:15 | 42.92946 | -87.30717 | 13419 ft | 420 kts | 94° |
| 2026-05-05 00:16 | 42.92775 | -87.26730 | 14552 ft | 429 kts | 94° |
| 2026-05-05 00:16 | 42.92604 | -87.22675 | 15670 ft | 436 kts | 94° |
| 2026-05-05 00:16 | 42.92435 | -87.18527 | 16712 ft | 445 kts | 94° |
| 2026-05-05 00:16 | 42.92269 | -87.14310 | 17705 ft | 454 kts | 94° |
| 2026-05-05 00:17 | 42.92068 | -87.09972 | 18659 ft | 462 kts | 96° |
| 2026-05-05 00:17 | 42.91680 | -87.05610 | 19627 ft | 469 kts | 101° |
| 2026-05-05 00:17 | 42.91023 | -87.01317 | 20579 ft | 475 kts | 106° |
| 2026-05-05 00:17 | 42.90145 | -86.96913 | 21529 ft | 481 kts | 108° |
| 2026-05-05 00:18 | 42.89206 | -86.92574 | 22398 ft | 489 kts | 109° |
| 2026-05-05 00:18 | 42.88235 | -86.88124 | 23329 ft | 495 kts | 109° |
| 2026-05-05 00:18 | 42.87281 | -86.83606 | 24182 ft | 503 kts | 108° |
| 2026-05-05 00:18 | 42.86348 | -86.79022 | 25089 ft | 508 kts | 108° |
| 2026-05-05 00:19 | 42.85410 | -86.74380 | 26021 ft | 513 kts | 108° |
| 2026-05-05 00:19 | 42.84452 | -86.69688 | 26902 ft | 519 kts | 108° |
| 2026-05-05 00:19 | 42.83465 | -86.64880 | 27826 ft | 524 kts | 108° |
| 2026-05-05 00:19 | 42.82486 | -86.60060 | 28686 ft | 529 kts | 108° |
| 2026-05-05 00:20 | 42.81506 | -86.55206 | 29663 ft | 531 kts | 107° |
| 2026-05-05 00:20 | 42.80544 | -86.50451 | 30765 ft | 529 kts | 107° |
| 2026-05-05 00:20 | 42.79569 | -86.45633 | 31677 ft | 528 kts | 108° |
| 2026-05-05 00:20 | 42.78600 | -86.40839 | 31900 ft | 526 kts | 108° |
| 2026-05-05 00:21 | 42.77636 | -86.36056 | 31943 ft | 521 kts | 107° |
| 2026-05-05 00:21 | 42.75747 | -86.26607 | 32007 ft | 517 kts | 108° |
| 2026-05-05 00:22 | 42.73873 | -86.17245 | 32031 ft | 517 kts | 108° |
| 2026-05-05 00:22 | 42.72002 | -86.07803 | 32047 ft | 518 kts | 108° |
| 2026-05-05 00:23 | 42.70135 | -85.98405 | 32047 ft | 519 kts | 107° |
| 2026-05-05 00:23 | 42.68269 | -85.88953 | 32066 ft | 518 kts | 108° |
| 2026-05-05 00:23 | 42.67279 | -85.84253 | 32470 ft | 521 kts | 108° |
| 2026-05-05 00:24 | 42.66263 | -85.79533 | 33086 ft | 522 kts | 109° |
| 2026-05-05 00:24 | 42.64268 | -85.70105 | 33050 ft | 518 kts | 108° |
| 2026-05-05 00:25 | 42.62322 | -85.60758 | 33063 ft | 515 kts | 108° |
| 2026-05-05 00:25 | 42.60376 | -85.51450 | 33067 ft | 515 kts | 107° |
| 2026-05-05 00:26 | 42.58419 | -85.42046 | 33064 ft | 514 kts | 108° |
| 2026-05-05 00:26 | 42.56189 | -85.32835 | 33061 ft | 513 kts | 112° |
| 2026-05-05 00:27 | 42.53834 | -85.23781 | 33061 ft | 512 kts | 112° |
| 2026-05-05 00:27 | 42.51487 | -85.14677 | 33062 ft | 512 kts | 111° |
| 2026-05-05 00:28 | 42.49198 | -85.05641 | 33054 ft | 512 kts | 111° |
| 2026-05-05 00:28 | 42.48035 | -85.01058 | 32770 ft | 512 kts | 111° |
| 2026-05-05 00:28 | 42.46892 | -84.96541 | 32635 ft | 510 kts | 111° |
| 2026-05-05 00:29 | 42.44594 | -84.87445 | 32629 ft | 510 kts | 111° |
| 2026-05-05 00:29 | 42.42319 | -84.78390 | 32622 ft | 511 kts | 110° |
| 2026-05-05 00:30 | 42.40042 | -84.69323 | 32618 ft | 510 kts | 110° |
| 2026-05-05 00:30 | 42.37785 | -84.60272 | 32625 ft | 509 kts | 110° |
| 2026-05-05 00:31 | 42.35533 | -84.51251 | 32629 ft | 509 kts | 110° |
| 2026-05-05 00:31 | 42.33288 | -84.42204 | 32630 ft | 509 kts | 110° |
| 2026-05-05 00:32 | 42.31050 | -84.33156 | 32627 ft | 508 kts | 110° |
| 2026-05-05 00:32 | 42.28754 | -84.24201 | 32623 ft | 507 kts | 112° |
| 2026-05-05 00:33 | 42.26370 | -84.15240 | 32622 ft | 506 kts | 111° |
| 2026-05-05 00:33 | 42.24045 | -84.06289 | 32628 ft | 506 kts | 111° |
| 2026-05-05 00:34 | 42.21720 | -83.97399 | 32630 ft | 505 kts | 111° |
| 2026-05-05 00:34 | 42.19426 | -83.88523 | 32639 ft | 504 kts | 111° |
| 2026-05-05 00:35 | 42.17109 | -83.79592 | 32643 ft | 505 kts | 111° |
| 2026-05-05 00:35 | 42.14958 | -83.70615 | 32645 ft | 507 kts | 106° |
| 2026-05-05 00:36 | 42.13514 | -83.61334 | 32645 ft | 509 kts | 101° |
| 2026-05-05 00:36 | 42.12275 | -83.51939 | 32644 ft | 509 kts | 101° |
| 2026-05-05 00:37 | 42.10954 | -83.42623 | 32646 ft | 510 kts | 102° |
| 2026-05-05 00:37 | 42.09597 | -83.33226 | 32647 ft | 511 kts | 102° |
| 2026-05-05 00:38 | 42.08263 | -83.23926 | 32639 ft | 511 kts | 102° |
| 2026-05-05 00:38 | 42.06928 | -83.14514 | 32642 ft | 511 kts | 102° |
| 2026-05-05 00:39 | 42.05607 | -83.05124 | 32650 ft | 512 kts | 102° |
| 2026-05-05 00:39 | 42.04302 | -82.95753 | 32658 ft | 513 kts | 101° |
| 2026-05-05 00:40 | 42.03000 | -82.86375 | 32663 ft | 512 kts | 101° |
| 2026-05-05 00:40 | 42.02088 | -82.76915 | 32668 ft | 511 kts | 88° |
| 2026-05-05 00:41 | 42.03055 | -82.67551 | 32678 ft | 510 kts | 77° |
| 2026-05-05 00:41 | 42.04349 | -82.58178 | 32667 ft | 510 kts | 79° |
| 2026-05-05 00:42 | 42.05406 | -82.48791 | 32662 ft | 510 kts | 81° |
| 2026-05-05 00:42 | 42.06411 | -82.39325 | 32526 ft | 511 kts | 81° |
| 2026-05-05 00:42 | 42.06927 | -82.34631 | 32222 ft | 511 kts | 81° |
| 2026-05-05 00:43 | 42.07452 | -82.29888 | 31889 ft | 509 kts | 81° |
| 2026-05-05 00:43 | 42.07971 | -82.25209 | 31565 ft | 508 kts | 81° |
| 2026-05-05 00:43 | 42.08490 | -82.20562 | 31242 ft | 507 kts | 81° |
| 2026-05-05 00:43 | 42.09018 | -82.15836 | 30927 ft | 507 kts | 81° |
| 2026-05-05 00:44 | 42.09540 | -82.11198 | 30682 ft | 508 kts | 81° |
| 2026-05-05 00:44 | 42.10070 | -82.06500 | 30452 ft | 510 kts | 81° |
| 2026-05-05 00:44 | 42.10605 | -82.01780 | 30222 ft | 511 kts | 81° |
| 2026-05-05 00:44 | 42.11145 | -81.97035 | 29992 ft | 512 kts | 81° |
| 2026-05-05 00:45 | 42.11676 | -81.92372 | 29763 ft | 512 kts | 81° |
| 2026-05-05 00:45 | 42.12218 | -81.87637 | 29528 ft | 512 kts | 81° |
| 2026-05-05 00:45 | 42.12766 | -81.82888 | 29294 ft | 512 kts | 81° |
| 2026-05-05 00:45 | 42.13311 | -81.78190 | 29066 ft | 513 kts | 81° |
| 2026-05-05 00:46 | 42.13863 | -81.73433 | 28831 ft | 514 kts | 81° |
| 2026-05-05 00:46 | 42.14420 | -81.68652 | 28597 ft | 515 kts | 81° |
| 2026-05-05 00:46 | 42.14974 | -81.63918 | 28369 ft | 515 kts | 81° |
| 2026-05-05 00:46 | 42.15490 | -81.59202 | 28141 ft | 515 kts | 82° |
| 2026-05-05 00:47 | 42.15965 | -81.54370 | 27902 ft | 516 kts | 82° |
| 2026-05-05 00:47 | 42.16418 | -81.49628 | 27682 ft | 517 kts | 82° |
| 2026-05-05 00:47 | 42.16877 | -81.44820 | 27345 ft | 515 kts | 82° |
| 2026-05-05 00:47 | 42.17338 | -81.40044 | 26274 ft | 519 kts | 82° |
| 2026-05-05 00:48 | 42.17809 | -81.35268 | 25261 ft | 521 kts | 82° |
| 2026-05-05 00:48 | 42.18292 | -81.30439 | 24400 ft | 518 kts | 82° |
| 2026-05-05 00:48 | 42.18774 | -81.25652 | 23683 ft | 513 kts | 82° |
| 2026-05-05 00:48 | 42.19256 | -81.20887 | 22935 ft | 509 kts | 82° |
| 2026-05-05 00:49 | 42.19726 | -81.16252 | 22262 ft | 504 kts | 82° |
| 2026-05-05 00:49 | 42.20197 | -81.11607 | 21580 ft | 499 kts | 82° |
| 2026-05-05 00:49 | 42.20664 | -81.07026 | 20919 ft | 494 kts | 82° |
| 2026-05-05 00:49 | 42.21131 | -81.02457 | 20220 ft | 489 kts | 82° |
| 2026-05-05 00:50 | 42.21591 | -80.97990 | 19556 ft | 485 kts | 82° |
| 2026-05-05 00:50 | 42.22051 | -80.93520 | 18892 ft | 480 kts | 82° |
| 2026-05-05 00:50 | 42.22509 | -80.89084 | 18196 ft | 476 kts | 82° |
| 2026-05-05 00:50 | 42.22961 | -80.84734 | 17530 ft | 472 kts | 82° |
| 2026-05-05 00:51 | 42.23418 | -80.80344 | 16879 ft | 470 kts | 82° |
| 2026-05-05 00:51 | 42.23874 | -80.76012 | 16297 ft | 466 kts | 82° |
| 2026-05-05 00:51 | 42.24327 | -80.71711 | 15797 ft | 460 kts | 82° |
| 2026-05-05 00:51 | 42.24772 | -80.67510 | 15471 ft | 459 kts | 82° |
| 2026-05-05 00:52 | 42.25220 | -80.63268 | 15155 ft | 458 kts | 82° |
| 2026-05-05 00:52 | 42.25676 | -80.59002 | 14905 ft | 456 kts | 82° |
| 2026-05-05 00:52 | 42.26127 | -80.54783 | 14644 ft | 449 kts | 82° |
| 2026-05-05 00:52 | 42.26551 | -80.50699 | 14514 ft | 434 kts | 82° |
| 2026-05-05 00:53 | 42.26916 | -80.46768 | 14392 ft | 419 kts | 83° |
| 2026-05-05 00:53 | 42.27248 | -80.42949 | 14291 ft | 405 kts | 83° |
| 2026-05-05 00:53 | 42.27571 | -80.39191 | 14187 ft | 392 kts | 83° |
| 2026-05-05 00:53 | 42.27878 | -80.35620 | 14096 ft | 381 kts | 83° |
| 2026-05-05 00:54 | 42.28188 | -80.32112 | 13973 ft | 372 kts | 84° |
| 2026-05-05 00:54 | 42.28495 | -80.28696 | 13895 ft | 365 kts | 83° |
| 2026-05-05 00:54 | 42.28801 | -80.25338 | 13792 ft | 360 kts | 83° |
| 2026-05-05 00:54 | 42.29105 | -80.21984 | 13684 ft | 364 kts | 83° |
| 2026-05-05 00:55 | 42.29426 | -80.18439 | 13680 ft | 395 kts | 83° |
| 2026-05-05 00:55 | 42.29771 | -80.14669 | 13614 ft | 418 kts | 83° |
| 2026-05-05 00:55 | 42.30145 | -80.10719 | 13506 ft | 431 kts | 83° |
| 2026-05-05 00:55 | 42.30523 | -80.06670 | 13415 ft | 441 kts | 83° |
| 2026-05-05 00:56 | 42.30906 | -80.02512 | 13313 ft | 448 kts | 83° |
| 2026-05-05 00:56 | 42.31293 | -79.98319 | 13211 ft | 450 kts | 83° |
| 2026-05-05 00:56 | 42.31673 | -79.94179 | 13121 ft | 449 kts | 83° |
| 2026-05-05 00:56 | 42.32054 | -79.90018 | 12992 ft | 448 kts | 83° |
| 2026-05-05 00:57 | 42.32433 | -79.85922 | 12862 ft | 434 kts | 83° |
| 2026-05-05 00:57 | 42.32801 | -79.81957 | 12751 ft | 419 kts | 83° |
| 2026-05-05 00:57 | 42.33158 | -79.78105 | 12661 ft | 404 kts | 83° |
| 2026-05-05 00:57 | 42.33505 | -79.74412 | 12577 ft | 391 kts | 83° |
| 2026-05-05 00:58 | 42.33853 | -79.70833 | 12487 ft | 381 kts | 82° |
| 2026-05-05 00:58 | 42.34204 | -79.67311 | 12396 ft | 373 kts | 82° |
| 2026-05-05 00:58 | 42.34542 | -79.63874 | 12303 ft | 367 kts | 83° |
| 2026-05-05 00:58 | 42.34874 | -79.60510 | 12190 ft | 362 kts | 80° |
| 2026-05-05 00:59 | 42.35533 | -79.57283 | 12096 ft | 359 kts | 65° |
| 2026-05-05 00:59 | 42.36782 | -79.54382 | 11898 ft | 352 kts | 49° |
| 2026-05-05 00:59 | 42.38362 | -79.51852 | 11715 ft | 351 kts | 44° |
| 2026-05-05 00:59 | 42.40022 | -79.49445 | 11508 ft | 350 kts | 43° |
| 2026-05-05 01:00 | 42.41664 | -79.47033 | 11320 ft | 351 kts | 45° |
| 2026-05-05 01:00 | 42.43270 | -79.44546 | 11000 ft | 351 kts | 46° |
| 2026-05-05 01:00 | 42.44835 | -79.42017 | 10996 ft | 351 kts | 47° |
| 2026-05-05 01:00 | 42.46381 | -79.39459 | 10962 ft | 351 kts | 47° |
| 2026-05-05 01:01 | 42.47903 | -79.36923 | 10980 ft | 351 kts | 47° |
| 2026-05-05 01:01 | 42.49447 | -79.34365 | 10986 ft | 351 kts | 48° |
| 2026-05-05 01:01 | 42.51005 | -79.31801 | 10959 ft | 350 kts | 48° |
| 2026-05-05 01:01 | 42.52555 | -79.29260 | 10966 ft | 351 kts | 47° |
| 2026-05-05 01:02 | 42.54107 | -79.26721 | 10973 ft | 350 kts | 47° |
| 2026-05-05 01:02 | 42.55644 | -79.24208 | 10983 ft | 350 kts | 47° |
| 2026-05-05 01:02 | 42.57197 | -79.21668 | 11002 ft | 350 kts | 47° |
| 2026-05-05 01:02 | 42.58765 | -79.19107 | 11028 ft | 350 kts | 47° |
| 2026-05-05 01:03 | 42.60327 | -79.16556 | 11036 ft | 350 kts | 47° |
| 2026-05-05 01:03 | 42.61869 | -79.14040 | 11043 ft | 350 kts | 47° |
| 2026-05-05 01:03 | 42.63404 | -79.11533 | 11019 ft | 340 kts | 47° |
| 2026-05-05 01:03 | 42.64912 | -79.09071 | 10708 ft | 342 kts | 47° |
| 2026-05-05 01:04 | 42.66429 | -79.06602 | 10309 ft | 343 kts | 48° |
| 2026-05-05 01:04 | 42.69503 | -79.01596 | 9488 ft | 345 kts | 48° |
| 2026-05-05 01:04 | 42.71039 | -78.99098 | 9078 ft | 346 kts | 48° |
| 2026-05-05 01:05 | 42.72506 | -78.96549 | 8978 ft | 337 kts | 54° |
| 2026-05-05 01:05 | 42.73762 | -78.93922 | 8980 ft | 331 kts | 57° |
| 2026-05-05 01:05 | 42.74929 | -78.91236 | 8980 ft | 326 kts | 59° |
| 2026-05-05 01:05 | 42.76029 | -78.88584 | 8975 ft | 318 kts | 60° |
| 2026-05-05 01:06 | 42.77085 | -78.85973 | 8981 ft | 314 kts | 60° |
| 2026-05-05 01:06 | 42.78125 | -78.83382 | 8982 ft | 312 kts | 60° |
| 2026-05-05 01:06 | 42.79162 | -78.80798 | 8968 ft | 312 kts | 60° |
| 2026-05-05 01:06 | 42.80203 | -78.78214 | 8967 ft | 313 kts | 60° |
| 2026-05-05 01:07 | 42.81249 | -78.75634 | 8996 ft | 314 kts | 60° |
| 2026-05-05 01:07 | 42.82310 | -78.73038 | 8981 ft | 314 kts | 60° |
| 2026-05-05 01:07 | 42.83375 | -78.70451 | 8970 ft | 314 kts | 59° |
| 2026-05-05 01:07 | 42.84448 | -78.67860 | 8977 ft | 314 kts | 59° |
| 2026-05-05 01:08 | 42.85527 | -78.65256 | 8985 ft | 314 kts | 59° |
| 2026-05-05 01:08 | 42.86607 | -78.62658 | 8687 ft | 318 kts | 59° |
| 2026-05-05 01:08 | 42.87687 | -78.60081 | 8463 ft | 311 kts | 59° |
| 2026-05-05 01:08 | 42.88731 | -78.57604 | 8111 ft | 293 kts | 59° |
| 2026-05-05 01:09 | 42.89726 | -78.55257 | 7758 ft | 281 kts | 59° |
| 2026-05-05 01:09 | 42.90695 | -78.52994 | 7312 ft | 274 kts | 59° |
| 2026-05-05 01:09 | 42.91656 | -78.50782 | 6849 ft | 270 kts | 59° |
| 2026-05-05 01:09 | 42.92615 | -78.48610 | 6383 ft | 267 kts | 59° |
| 2026-05-05 01:10 | 42.93552 | -78.46507 | 6153 ft | 252 kts | 59° |
| 2026-05-05 01:10 | 42.94444 | -78.44515 | 5971 ft | 239 kts | 59° |
| 2026-05-05 01:10 | 42.95301 | -78.42613 | 5709 ft | 232 kts | 59° |
| 2026-05-05 01:10 | 42.96128 | -78.40774 | 5397 ft | 228 kts | 59° |
| 2026-05-05 01:11 | 42.96955 | -78.38937 | 5046 ft | 226 kts | 59° |
| 2026-05-05 01:11 | 42.97770 | -78.37139 | 5023 ft | 225 kts | 59° |
| 2026-05-05 01:11 | 42.98632 | -78.35313 | 4991 ft | 230 kts | 52° |
| 2026-05-05 01:11 | 42.99876 | -78.34079 | 5034 ft | 217 kts | 12° |
| 2026-05-05 01:12 | 43.01344 | -78.33947 | 5085 ft | 209 kts | 342° |
| 2026-05-05 01:12 | 43.02723 | -78.34515 | 5000 ft | 203 kts | 326° |
| 2026-05-05 01:12 | 43.03779 | -78.35642 | 5012 ft | 186 kts | 300° |
| 2026-05-05 01:12 | 43.04459 | -78.37099 | 4727 ft | 181 kts | 289° |
| 2026-05-05 01:13 | 43.04997 | -78.38650 | 4463 ft | 179 kts | 282° |
| 2026-05-05 01:13 | 43.05368 | -78.40218 | 4204 ft | 171 kts | 279° |
| 2026-05-05 01:13 | 43.05699 | -78.41711 | 4105 ft | 158 kts | 278° |
| 2026-05-05 01:13 | 43.06026 | -78.43110 | 4093 ft | 150 kts | 279° |
| 2026-05-05 01:14 | 43.06364 | -78.44454 | 4083 ft | 149 kts | 280° |
| 2026-05-05 01:14 | 43.06720 | -78.45779 | 4068 ft | 149 kts | 281° |
| 2026-05-05 01:14 | 43.07084 | -78.47096 | 4044 ft | 149 kts | 281° |
| 2026-05-05 01:14 | 43.07452 | -78.48417 | 4040 ft | 149 kts | 281° |
| 2026-05-05 01:15 | 43.07820 | -78.49741 | 4024 ft | 148 kts | 281° |
| 2026-05-05 01:15 | 43.08183 | -78.51060 | 4016 ft | 148 kts | 281° |
| 2026-05-05 01:15 | 43.08501 | -78.52396 | 3980 ft | 144 kts | 271° |
| 2026-05-05 01:15 | 43.08436 | -78.53691 | 4005 ft | 133 kts | 244° |
| 2026-05-05 01:16 | 43.07915 | -78.54706 | 4017 ft | 133 kts | 227° |
| 2026-05-05 01:16 | 43.07268 | -78.55620 | 3984 ft | 132 kts | 226° |
| 2026-05-05 01:16 | 43.06612 | -78.56493 | 3857 ft | 133 kts | 225° |
| 2026-05-05 01:16 | 43.05940 | -78.57370 | 3681 ft | 132 kts | 225° |
| 2026-05-05 01:17 | 43.05272 | -78.58240 | 3516 ft | 133 kts | 225° |
| 2026-05-05 01:17 | 43.04609 | -78.59103 | 3329 ft | 132 kts | 225° |
| 2026-05-05 01:17 | 43.03948 | -78.59967 | 3170 ft | 131 kts | 225° |
| 2026-05-05 01:17 | 43.03291 | -78.60831 | 2997 ft | 131 kts | 225° |
| 2026-05-05 01:18 | 43.02634 | -78.61694 | 2820 ft | 131 kts | 224° |
| 2026-05-05 01:18 | 43.01975 | -78.62559 | 2649 ft | 132 kts | 224° |
| 2026-05-05 01:18 | 43.01311 | -78.63430 | 2479 ft | 133 kts | 224° |
| 2026-05-05 01:18 | 43.00643 | -78.64304 | 2297 ft | 133 kts | 223° |
| 2026-05-05 01:19 | 42.99980 | -78.65176 | 2132 ft | 134 kts | 223° |
| 2026-05-05 01:19 | 42.99305 | -78.66064 | 1948 ft | 134 kts | 222° |
| 2026-05-05 01:19 | 42.98629 | -78.66947 | 1775 ft | 135 kts | 221° |
| 2026-05-05 01:19 | 42.97942 | -78.67844 | 1591 ft | 136 kts | 221° |
| 2026-05-05 01:20 | 42.97255 | -78.68741 | 1422 ft | 138 kts | 222° |
| 2026-05-05 01:20 | 42.96564 | -78.69646 | 1241 ft | 142 kts | 222° |
| 2026-05-05 01:20 | 42.95847 | -78.70585 | 1041 ft | 144 kts | 222° |
| 2026-05-05 01:20 | 42.95114 | -78.71550 | 853 ft | 147 kts | 223° |
| 2026-05-05 01:21 | 42.94381 | -78.72514 | 710 ft | 143 kts | 222° |
| 2026-05-05 01:21 | 42.93994 | -78.73019 | 712 ft | 31 kts | 223° |
| 2026-05-05 01:21 | 42.93822 | -78.73244 | 711 ft | 35 kts | 224° |
| 2026-05-05 01:21 | 42.93653 | -78.73469 | 708 ft | 9 kts | 224° |
| 2026-05-05 01:22 | 42.93621 | -78.73511 | 707 ft | 14 kts | 224° |
| 2026-05-05 01:22 | 42.93501 | -78.73662 | 702 ft | 20 kts | 215° |
| 2026-05-05 01:22 | 42.93412 | -78.73599 | 700 ft | 21 kts | 78° |
| 2026-05-05 01:22 | 42.93512 | -78.73444 | 702 ft | 9 kts | 40° |
| 2026-05-05 01:23 | 42.93570 | -78.73408 | 705 ft | 9 kts | 354° |
| 2026-05-05 01:23 | 42.93655 | -78.73503 | 708 ft | 21 kts | 304° |
| 2026-05-05 01:23 | 42.93725 | -78.73670 | 708 ft | 21 kts | 297° |
| 2026-05-05 01:23 | 42.93798 | -78.73818 | 711 ft | 15 kts | 329° |
| 2026-05-05 01:24 | 42.93891 | -78.73907 | 714 ft | 18 kts | 286° |
| 2026-05-05 01:24 | 42.93899 | -78.74023 | 713 ft | 7 kts | 270° |
| 2026-05-05 01:24 | 42.93901 | -78.74110 | 713 ft | 5 kts | 270° |
| 2026-05-05 01:24 | 42.93901 | -78.74126 | 713 ft | 0 kts | 269° |
| 2026-05-05 01:25 | 42.93901 | -78.74133 | 713 ft | 1 kts | 271° |
| 2026-05-05 01:25 | 42.93901 | -78.74136 | 713 ft | 0 kts | 271° |